LZTT/TAT METAR and TAF weather

Enter ICAO airport designator
Station Type Date Time Source
LZTT METAR 2020/07/12 06:00 UTC NOAA

LZTT 120600Z 04013KT 9999 FEW010 SCT020 11/06 Q1022 NOSIG


Station Type Date Time Source
LZTT Decoded METAR 2020/07/12 06:00 UTC NOAA

Poprad / Tatry, Slovakia (LZTT) 49-04N 020-15E 695M
Jul 12, 2020 - 02:00 AM EDT / 2020.07.12 0600 UTC
Wind: from the NE (040 degrees) at 15 MPH (13 KT):0
Visibility: greater than 7 mile(s):0
Sky conditions: partly cloudy
Temperature: 51 F (11 C)
Dew Point: 42 F (6 C)
Relative Humidity: 71%
Pressure (altimeter): 30.18 in. Hg (1022 hPa)
ob: LZTT 120600Z 04013KT 9999 FEW010 SCT020 11/06 Q1022 NOSIG
cycle: 6

Station Type Date Time Source
LZTT TAF 2020/07/12 06:43 UTC NOAA

TAF LZTT 120500Z 1206/1306 06012KT 9999 SCT008 BKN055
BECMG 1207/1209 SCT050
BECMG 1215/1217 VRB02KT FEW020 PROB30
TEMPO 1302/1306 BKN006

Example: see airport list